Time,TemperatureF,DewpointF,PressureIn,WindDirection,WindDirectionDegrees,WindSpeedMPH,WindSpeedGustMPH,Humidity,HourlyPrecipIn,Conditions,Clouds,dailyrainin,SoftwareType,DateUTC
2013-02-12 00:00:00,23.6,17.3,30.01,WNW,287,4.8,8.0,68,0.00,NA,NA,0.00,meteo_script,2013-02-12 06:00:00,
2013-02-12 00:30:00,23.2,17.0,30.02,NW,304,3.0,6.0,68,0.00,NA,NA,0.00,meteo_script,2013-02-12 06:30:00,
2013-02-12 01:00:00,22.4,16.2,30.03,NW,309,3.1,7.0,68,0.00,NA,NA,0.00,meteo_script,2013-02-12 07:00:00,
2013-02-12 01:30:00,22.4,16.4,30.04,WNW,296,1.0,3.0,69,0.00,NA,NA,0.00,meteo_script,2013-02-12 07:30:00,
2013-02-12 02:00:00,22.7,16.7,30.05,WNW,283,0.5,2.0,69,0.00,NA,NA,0.00,meteo_script,2013-02-12 08:00:00,
2013-02-12 02:30:00,22.3,16.1,30.06,West,261,9.7,15.0,68,0.00,NA,NA,0.00,meteo_script,2013-02-12 08:30:00,
2013-02-12 03:00:00,22.0,15.8,30.05,West,276,0.6,4.0,68,0.00,NA,NA,0.00,meteo_script,2013-02-12 09:00:00,
2013-02-12 03:30:00,22.0,16.1,30.05,West,272,3.3,9.0,69,0.00,NA,NA,0.00,meteo_script,2013-02-12 09:30:00,
2013-02-12 04:00:00,21.4,15.2,30.05,WSW,255,7.6,13.0,68,0.00,NA,NA,0.00,meteo_script,2013-02-12 10:00:00,
2013-02-12 04:30:00,21.0,14.9,30.06,West,278,6.4,10.0,68,0.00,NA,NA,0.00,meteo_script,2013-02-12 10:30:00,
2013-02-12 05:00:00,20.9,14.8,30.06,West,275,2.9,5.0,68,0.00,NA,NA,0.00,meteo_script,2013-02-12 11:00:00,
2013-02-12 05:30:00,20.9,14.8,30.05,WNW,292,2.2,5.0,68,0.00,NA,NA,0.00,meteo_script,2013-02-12 11:30:00,
2013-02-12 06:00:00,21.0,14.8,30.05,West,267,2.9,6.0,68,0.00,NA,NA,0.00,meteo_script,2013-02-12 12:00:00,
2013-02-12 06:30:00,20.9,14.9,30.05,West,267,2.2,4.0,68,0.00,NA,NA,0.00,meteo_script,2013-02-12 12:30:00,
2013-02-12 07:00:00,21.3,15.4,30.06,West,274,3.1,6.0,69,0.00,NA,NA,0.00,meteo_script,2013-02-12 13:00:00,
2013-02-12 07:30:00,21.4,15.5,30.07,WSW,258,4.5,9.0,69,0.00,NA,NA,0.00,meteo_script,2013-02-12 13:30:00,
2013-02-12 08:00:00,22.0,15.7,30.08,WSW,256,4.2,8.0,67,0.00,NA,NA,0.00,meteo_script,2013-02-12 14:00:00,
2013-02-12 08:30:00,22.5,15.8,30.08,West,266,3.3,7.0,66,0.00,NA,NA,0.00,meteo_script,2013-02-12 14:30:00,
2013-02-12 09:00:00,22.8,15.6,30.07,West,272,5.8,9.0,64,0.00,NA,NA,0.00,meteo_script,2013-02-12 15:00:00,
2013-02-12 09:30:00,23.6,15.8,30.06,WNW,301,2.4,5.0,62,0.00,NA,NA,0.00,meteo_script,2013-02-12 15:30:00,
2013-02-12 10:00:00,24.6,16.2,30.06,NW,317,1.5,6.0,59,0.00,NA,NA,0.00,meteo_script,2013-02-12 16:00:00,
2013-02-12 10:30:00,25.5,16.9,30.06,West,269,5.3,9.0,59,0.00,NA,NA,0.00,meteo_script,2013-02-12 16:30:00,
2013-02-12 11:00:00,26.3,17.4,30.07,WSW,247,2.9,4.0,58,0.00,NA,NA,0.00,meteo_script,2013-02-12 17:00:00,
2013-02-12 11:30:00,27.6,18.3,30.06,WSW,242,4.8,7.0,57,0.00,NA,NA,0.00,meteo_script,2013-02-12 17:30:00,
2013-02-12 12:00:00,28.0,18.7,30.04,SW,234,4.8,8.0,57,0.00,NA,NA,0.00,meteo_script,2013-02-12 18:00:00,
2013-02-12 12:30:00,28.4,19.3,30.02,West,279,4.2,7.0,58,0.00,NA,NA,0.00,meteo_script,2013-02-12 18:30:00,
2013-02-12 13:00:00,29.5,20.0,30.00,West,268,5.6,10.0,57,0.00,NA,NA,0.00,meteo_script,2013-02-12 19:00:00,
2013-02-12 13:30:00,29.0,19.9,30.00,West,262,7.3,11.0,58,0.00,NA,NA,0.00,meteo_script,2013-02-12 19:30:00,
2013-02-12 14:00:00,29.6,20.8,29.98,West,262,5.2,8.0,59,0.00,NA,NA,0.00,meteo_script,2013-02-12 20:00:00,
2013-02-12 14:30:00,30.2,21.3,29.98,WSW,249,6.7,11.0,59,0.00,NA,NA,0.00,meteo_script,2013-02-12 20:30:00,
2013-02-12 15:00:00,30.8,21.6,29.97,WSW,258,4.4,9.0,58,0.00,NA,NA,0.00,meteo_script,2013-02-12 21:00:00,
2013-02-12 15:30:00,31.6,22.2,29.96,WSW,243,5.6,10.0,57,0.00,NA,NA,0.00,meteo_script,2013-02-12 21:30:00,
2013-02-12 16:00:00,31.6,22.5,29.97,SW,218,4.7,7.0,59,0.00,NA,NA,0.00,meteo_script,2013-02-12 22:00:00,
2013-02-12 16:30:00,31.2,22.5,29.96,WSW,240,2.3,4.0,60,0.00,NA,NA,0.00,meteo_script,2013-02-12 22:30:00,
2013-02-12 17:00:00,30.3,22.2,29.95,SSW,212,3.3,5.0,62,0.00,NA,NA,0.00,meteo_script,2013-02-12 23:00:00,
2013-02-12 17:30:00,29.0,21.5,29.94,SSW,211,1.7,4.0,64,0.00,NA,NA,0.00,meteo_script,2013-02-12 23:30:00,
2013-02-12 18:00:00,27.9,20.9,29.94,SSW,199,1.6,4.0,66,0.00,NA,NA,0.00,meteo_script,2013-02-13 00:00:00,
2013-02-12 18:30:00,27.2,20.8,29.94,SSW,205,0.7,2.0,68,0.00,NA,NA,0.00,meteo_script,2013-02-13 00:30:00,
2013-02-12 19:00:00,26.7,20.5,29.93,SSW,205,0.9,2.0,69,0.00,NA,NA,0.00,meteo_script,2013-02-13 01:00:00,
2013-02-12 19:30:00,26.1,20.2,29.93,SSW,207,0.2,1.0,70,0.00,NA,NA,0.00,meteo_script,2013-02-13 01:30:00,
2013-02-12 20:00:00,25.5,19.9,29.93,SSW,207,0.7,3.0,71,0.00,NA,NA,0.00,meteo_script,2013-02-13 02:00:00,
2013-02-12 20:30:00,25.1,19.7,29.92,SSW,206,2.3,4.0,72,0.00,NA,NA,0.00,meteo_script,2013-02-13 02:30:00,
2013-02-12 21:00:00,25.0,19.8,29.92,SSW,209,1.9,4.0,73,0.00,NA,NA,0.00,meteo_script,2013-02-13 03:00:00,
2013-02-12 21:30:00,24.7,19.7,29.91,SSW,211,1.8,3.0,74,0.00,NA,NA,0.00,meteo_script,2013-02-13 03:30:00,
2013-02-12 22:00:00,24.3,19.6,29.89,SSW,206,1.0,3.0,75,0.00,NA,NA,0.00,meteo_script,2013-02-13 04:00:00,
2013-02-12 22:30:00,23.9,19.3,29.89,SSW,210,2.4,4.0,75,0.00,NA,NA,0.00,meteo_script,2013-02-13 04:30:00,
2013-02-12 23:00:00,23.7,19.4,29.88,SSW,204,3.4,5.0,77,0.00,NA,NA,0.00,meteo_script,2013-02-13 05:00:00,
2013-02-12 23:30:00,23.5,19.3,29.87,SSW,209,3.5,5.0,77,0.00,NA,NA,0.00,meteo_script,2013-02-13 05:30:00,